createdAt,value
2022-09-28T00:01:19.556Z,67.85
2022-09-28T00:04:25.587Z,68.01
2022-09-28T00:07:32.088Z,67.99
2022-09-28T00:10:38.274Z,67.98
2022-09-28T00:13:43.022Z,68.03
2022-09-28T00:16:49.804Z,68.19
2022-09-28T00:19:58.094Z,67.98
2022-09-28T00:23:04.186Z,67.96
2022-09-28T00:26:10.260Z,67.97
2022-09-28T00:29:19.946Z,68.73
2022-09-28T00:32:41.889Z,68.18
2022-09-28T00:35:56.478Z,67.62
2022-09-28T00:39:08.109Z,67.40
2022-09-28T00:42:24.226Z,67.24
2022-09-28T00:45:31.885Z,67.28
2022-09-28T00:48:51.362Z,66.99
2022-09-28T00:51:59.353Z,66.71
2022-09-28T00:55:19.052Z,66.54
2022-09-28T00:58:33.733Z,67.06
2022-09-28T01:01:46.852Z,67.35
2022-09-28T01:04:58.484Z,67.47
2022-09-28T01:08:07.739Z,67.36
2022-09-28T01:11:13.863Z,67.16
2022-09-28T01:14:19.257Z,67.12
2022-09-28T01:17:32.306Z,66.81
2022-09-28T01:20:55.926Z,66.52
2022-09-28T01:24:23.209Z,66.38
2022-09-28T01:27:34.257Z,66.67
2022-09-28T01:30:47.318Z,66.86
2022-09-28T01:33:57.988Z,67.24
2022-09-28T01:37:11.165Z,67.34
2022-09-28T01:40:18.728Z,67.19
2022-09-28T01:43:28.231Z,67.03
2022-09-28T01:46:39.410Z,67.07
2022-09-28T01:49:50.258Z,67.20
2022-09-28T01:53:00.638Z,67.08
2022-09-28T01:56:12.551Z,67.18
2022-09-28T01:59:21.540Z,67.19
2022-09-28T02:02:33.608Z,67.33
2022-09-28T02:05:43.475Z,67.41
2022-09-28T02:08:55.148Z,67.57
2022-09-28T02:12:07.247Z,67.53
2022-09-28T02:15:19.497Z,67.72
2022-09-28T02:18:26.093Z,68.05
2022-09-28T02:21:39.578Z,68.15
2022-09-28T02:24:55.289Z,68.12
2022-09-28T02:28:03.270Z,67.92
2022-09-28T02:31:09.560Z,67.99
2022-09-28T02:34:15.621Z,68.04
2022-09-28T02:37:21.908Z,68.10
2022-09-28T02:40:30.034Z,68.19
2022-09-28T02:43:50.742Z,68.23
2022-09-28T02:47:05.986Z,68.08
2022-09-28T02:50:20.569Z,68.13
2022-09-28T02:53:46.559Z,68.11
2022-09-28T02:57:03.635Z,68.09
2022-09-28T03:00:16.102Z,68.27
2022-09-28T03:03:30.644Z,68.38
2022-09-28T03:06:42.715Z,68.40
2022-09-28T03:09:56.934Z,68.51
2022-09-28T03:13:05.078Z,68.27
2022-09-28T03:16:16.890Z,68.16
2022-09-28T03:19:28.233Z,67.89
2022-09-28T03:22:34.286Z,67.89
2022-09-28T03:25:40.867Z,68.11
2022-09-28T03:28:46.910Z,67.84
2022-09-28T03:31:55.091Z,67.61
2022-09-28T03:35:01.290Z,67.51
2022-09-28T03:38:07.390Z,67.01
2022-09-28T03:41:13.583Z,66.57
2022-09-28T03:44:18.058Z,66.78
2022-09-28T03:47:24.142Z,67.95
2022-09-28T03:50:30.280Z,67.90
2022-09-28T03:53:36.752Z,67.74
2022-09-28T03:56:42.977Z,67.84
2022-09-28T03:59:47.438Z,67.28
2022-09-28T04:02:54.157Z,67.20
2022-09-28T04:06:00.468Z,67.03
2022-09-28T04:09:04.920Z,66.95
2022-09-28T04:12:11.110Z,66.86
2022-09-28T04:15:15.585Z,66.40
2022-09-28T04:18:22.136Z,66.29
2022-09-28T04:21:28.634Z,65.75
2022-09-28T04:24:34.722Z,65.67
2022-09-28T04:28:12.976Z,65.76
2022-09-28T04:31:21.739Z,65.92
2022-09-28T04:34:33.140Z,65.79
2022-09-28T04:37:41.584Z,65.75
2022-09-28T04:40:49.968Z,65.68
2022-09-28T04:43:56.286Z,65.74
2022-09-28T04:47:05.182Z,65.94
2022-09-28T04:50:12.413Z,66.20
2022-09-28T04:53:18.559Z,66.66
2022-09-28T04:56:24.630Z,67.09
2022-09-28T04:59:30.835Z,67.56
2022-09-28T05:02:37.023Z,67.91
2022-09-28T05:05:49.074Z,68.06
2022-09-28T05:08:57.638Z,67.99
2022-09-28T05:12:04.461Z,68.53
2022-09-28T05:15:11.866Z,68.70
2022-09-28T05:18:18.022Z,68.58
2022-09-28T05:21:24.881Z,68.39
2022-09-28T05:24:31.189Z,68.25
2022-09-28T05:27:35.683Z,68.21
2022-09-28T05:30:41.839Z,68.59
2022-09-28T05:33:47.989Z,68.75
2022-09-28T05:36:54.093Z,68.67
2022-09-28T05:40:00.219Z,68.82
2022-09-28T05:43:06.385Z,68.70
2022-09-28T05:46:12.685Z,68.25
2022-09-28T05:49:17.451Z,68.22
2022-09-28T05:52:23.862Z,68.71
2022-09-28T05:55:30.219Z,68.45
2022-09-28T05:58:36.436Z,68.06
2022-09-28T06:01:42.609Z,67.82
2022-09-28T06:04:49.572Z,68.19
2022-09-28T06:07:56.339Z,67.98
2022-09-28T06:11:04.045Z,68.12
2022-09-28T06:14:10.540Z,68.61
2022-09-28T06:17:16.747Z,68.99
2022-09-28T06:20:23.043Z,69.33
2022-09-28T06:23:27.596Z,69.77
2022-09-28T06:26:33.920Z,70.08
2022-09-28T06:29:39.953Z,69.65
2022-09-28T06:32:46.380Z,69.28
2022-09-28T06:35:52.510Z,69.29
2022-09-28T06:38:58.621Z,68.91
2022-09-28T06:42:05.196Z,68.89
2022-09-28T06:45:12.746Z,69.12
2022-09-28T06:48:18.898Z,68.77
2022-09-28T06:51:25.229Z,69.05
2022-09-28T06:54:29.774Z,68.76
2022-09-28T06:57:35.829Z,67.94
2022-09-28T07:00:42.753Z,68.41
2022-09-28T07:03:52.488Z,68.26
2022-09-28T07:07:01.139Z,68.15
2022-09-28T07:10:10.355Z,66.42
2022-09-28T07:13:44.555Z,67.53
2022-09-28T07:17:09.680Z,68.07
2022-09-28T07:20:18.672Z,68.80
2022-09-28T07:23:26.570Z,68.84
2022-09-28T07:26:33.899Z,68.39
2022-09-28T07:29:40.015Z,68.39
2022-09-28T07:32:48.516Z,67.24
2022-09-28T07:35:56.452Z,67.49
2022-09-28T07:39:02.656Z,67.81
2022-09-28T07:42:07.582Z,68.57
2022-09-28T07:45:13.935Z,68.85
2022-09-28T07:48:20.514Z,69.55
2022-09-28T07:51:26.608Z,68.52
2022-09-28T07:54:32.760Z,68.82
2022-09-28T07:57:40.013Z,69.64
2022-09-28T08:00:48.573Z,68.91
2022-09-28T08:03:56.452Z,68.90
2022-09-28T08:07:03.225Z,66.86
2022-09-28T08:10:10.673Z,65.82
2022-09-28T08:13:18.743Z,64.65
2022-09-28T08:16:25.560Z,62.03
2022-09-28T08:19:52.447Z,63.85
2022-09-28T08:23:03.767Z,64.37
2022-09-28T08:26:15.190Z,62.99
2022-09-28T08:29:21.663Z,61.62
2022-09-28T08:32:26.402Z,61.91
2022-09-28T08:35:32.582Z,60.45
2022-09-28T08:38:37.060Z,56.81
2022-09-28T08:41:50.933Z,59.22
2022-09-28T08:45:00.331Z,64.63
2022-09-28T08:48:30.781Z,66.44
2022-09-28T08:51:41.851Z,64.21
2022-09-28T08:54:53.227Z,62.84
2022-09-28T08:58:04.295Z,63.99
2022-09-28T09:01:16.706Z,62.89
2022-09-28T09:04:22.998Z,61.95
2022-09-28T09:07:41.259Z,59.26
2022-09-28T09:10:53.551Z,58.21
2022-09-28T09:14:35.146Z,62.57
2022-09-28T09:17:51.185Z,57.83
2022-09-28T09:21:02.425Z,59.58
2022-09-28T09:24:24.941Z,59.44
2022-09-28T09:27:43.701Z,59.25
2022-09-28T09:31:00.898Z,59.23
2022-09-28T09:34:41.059Z,58.14
2022-09-28T09:38:00.734Z,59.41
2022-09-28T09:41:17.848Z,62.32
2022-09-28T09:44:46.469Z,60.36
2022-09-28T09:47:57.699Z,57.60
2022-09-28T09:51:14.436Z,56.13
2022-09-28T09:54:28.469Z,55.96
2022-09-28T09:57:41.994Z,56.29
2022-09-28T10:00:51.694Z,57.49
2022-09-28T10:04:00.178Z,58.88
2022-09-28T10:07:10.746Z,58.89
2022-09-28T10:10:21.703Z,61.36
2022-09-28T10:13:29.337Z,60.79
2022-09-28T10:16:37.243Z,60.41
2022-09-28T10:19:43.988Z,58.80
2022-09-28T10:22:51.318Z,57.84
2022-09-28T10:26:01.866Z,57.60
2022-09-28T10:29:14.893Z,58.97
2022-09-28T10:32:26.513Z,61.56
2022-09-28T10:35:42.289Z,58.04
2022-09-28T10:38:50.774Z,58.67
2022-09-28T10:41:58.794Z,57.18
2022-09-28T10:45:20.981Z,57.50
2022-09-28T10:48:28.408Z,58.70
2022-09-28T10:51:49.758Z,61.58
2022-09-28T10:54:57.103Z,61.17
2022-09-28T10:58:18.913Z,56.78
2022-09-28T11:01:28.617Z,56.17
2022-09-28T11:04:41.438Z,57.07
2022-09-28T11:07:52.016Z,57.63
2022-09-28T11:11:10.754Z,57.35
2022-09-28T11:14:27.438Z,57.87
2022-09-28T11:17:38.792Z,58.39
2022-09-28T11:20:45.606Z,57.85
2022-09-28T11:24:06.022Z,59.71
2022-09-28T11:27:23.724Z,63.10
2022-09-28T11:30:32.976Z,61.64
2022-09-28T11:33:41.463Z,56.66
2022-09-28T11:37:08.366Z,54.39
2022-09-28T11:40:29.131Z,54.75
2022-09-28T11:43:49.429Z,55.24
2022-09-28T11:47:05.503Z,55.83
2022-09-28T11:50:24.448Z,56.32
2022-09-28T11:53:38.260Z,54.42
2022-09-28T11:56:48.995Z,54.80
2022-09-28T12:00:03.070Z,54.25
2022-09-28T12:03:15.491Z,53.64
2022-09-28T12:06:28.764Z,53.12
2022-09-28T12:09:39.735Z,52.38
2022-09-28T12:12:51.154Z,52.27
2022-09-28T12:16:27.577Z,54.31
2022-09-28T12:19:33.482Z,54.05
2022-09-28T12:22:44.497Z,54.38
2022-09-28T12:25:54.958Z,53.13
2022-09-28T12:29:06.650Z,53.51
2022-09-28T12:32:24.962Z,53.76
2022-09-28T12:35:42.263Z,52.08
2022-09-28T12:39:18.012Z,51.74
2022-09-28T12:42:53.220Z,51.72
2022-09-28T12:46:14.323Z,50.67
2022-09-28T12:50:37.162Z,50.46
2022-09-28T12:53:41.681Z,48.69
2022-09-28T12:57:00.976Z,48.12
2022-09-28T13:00:11.853Z,47.86
2022-09-28T13:03:36.362Z,49.05
2022-09-28T13:06:55.062Z,48.98
2022-09-28T13:10:14.570Z,49.20
2022-09-28T13:13:38.305Z,49.19
2022-09-28T13:16:56.167Z,49.61
2022-09-28T13:20:18.951Z,48.77
2022-09-28T13:23:28.940Z,49.72
2022-09-28T13:26:39.594Z,49.15
2022-09-28T13:29:46.351Z,49.27
2022-09-28T13:32:54.363Z,49.09
2022-09-28T13:36:03.438Z,48.03
2022-09-28T13:39:56.701Z,49.00
2022-09-28T13:43:23.271Z,49.37
2022-09-28T13:46:41.085Z,48.40
2022-09-28T13:49:58.010Z,48.85
2022-09-28T13:53:16.707Z,47.94
2022-09-28T13:56:36.122Z,48.77
2022-09-28T13:59:51.257Z,48.39
2022-09-28T14:03:05.069Z,48.62
2022-09-28T14:06:25.579Z,49.93
2022-09-28T14:09:45.776Z,50.54
2022-09-28T14:12:52.634Z,50.89
2022-09-28T14:16:26.910Z,50.07
2022-09-28T14:19:35.302Z,50.01
2022-09-28T14:22:53.965Z,50.88
2022-09-28T14:26:18.408Z,53.01
2022-09-28T14:29:30.144Z,53.69
2022-09-28T14:32:37.738Z,53.81
2022-09-28T14:35:48.313Z,53.87
2022-09-28T14:39:13.227Z,53.52
2022-09-28T14:42:23.194Z,54.20
2022-09-28T14:45:44.603Z,55.68
2022-09-28T14:48:52.775Z,55.04
2022-09-28T14:52:04.938Z,56.01
2022-09-28T14:55:30.613Z,57.03
2022-09-28T14:58:39.639Z,56.64
2022-09-28T15:01:51.846Z,57.35
2022-09-28T15:05:02.039Z,57.45
2022-09-28T15:08:08.343Z,57.81
2022-09-28T15:11:20.291Z,58.56
2022-09-28T15:14:28.102Z,60.36
2022-09-28T15:17:39.954Z,59.84
2022-09-28T15:20:49.834Z,61.95
2022-09-28T15:23:55.941Z,64.45
2022-09-28T15:27:03.142Z,65.37
2022-09-28T15:30:24.203Z,62.50
2022-09-28T15:33:49.121Z,63.00
2022-09-28T15:36:56.450Z,62.07
2022-09-28T15:40:04.242Z,60.88
2022-09-28T15:43:24.940Z,60.33
2022-09-28T15:46:31.834Z,60.25
2022-09-28T15:49:43.137Z,60.81
2022-09-28T15:52:57.551Z,61.87
2022-09-28T15:56:10.327Z,63.93
2022-09-28T15:59:26.718Z,64.29
2022-09-28T16:02:33.077Z,62.82
2022-09-28T16:05:47.253Z,59.78
2022-09-28T16:08:53.852Z,57.18
2022-09-28T16:12:00.264Z,57.27
2022-09-28T16:15:20.474Z,56.63
2022-09-28T16:18:27.972Z,57.79
2022-09-28T16:21:44.817Z,58.19
2022-09-28T16:24:58.266Z,57.96
2022-09-28T16:28:05.414Z,57.88
2022-09-28T16:31:28.472Z,59.18
2022-09-28T16:34:34.590Z,58.76
2022-09-28T16:37:42.799Z,58.49
2022-09-28T16:40:50.689Z,59.00
2022-09-28T16:44:00.953Z,60.45
2022-09-28T16:47:07.701Z,63.15
2022-09-28T16:50:17.460Z,63.65
2022-09-28T16:53:41.239Z,62.57
2022-09-28T16:56:47.470Z,61.07
2022-09-28T16:59:53.365Z,58.69
2022-09-28T17:02:59.593Z,58.62
2022-09-28T17:06:07.719Z,59.13
2022-09-28T17:09:15.207Z,60.20
2022-09-28T17:12:24.990Z,61.95
2022-09-28T17:15:31.179Z,65.28
2022-09-28T17:18:39.204Z,65.72
2022-09-28T17:21:45.377Z,65.05
2022-09-28T17:24:50.192Z,64.32
2022-09-28T17:27:58.398Z,64.22
2022-09-28T17:31:05.801Z,62.72
2022-09-28T17:34:12.857Z,61.01
2022-09-28T17:37:18.978Z,60.30
2022-09-28T17:40:24.168Z,58.30
2022-09-28T17:43:30.344Z,57.37
2022-09-28T17:46:35.872Z,59.90
2022-09-28T17:49:45.841Z,60.11
2022-09-28T17:52:53.454Z,60.91
2022-09-28T17:55:59.563Z,62.87
2022-09-28T17:59:05.082Z,64.44
2022-09-28T18:02:12.755Z,63.55
2022-09-28T18:05:19.885Z,62.47
2022-09-28T18:08:26.176Z,61.57
2022-09-28T18:11:32.834Z,60.25
2022-09-28T18:14:40.191Z,58.02
2022-09-28T18:17:46.347Z,58.91
2022-09-28T18:20:50.790Z,60.71
2022-09-28T18:23:56.543Z,61.23
2022-09-28T18:27:02.500Z,64.47
2022-09-28T18:30:10.342Z,65.23
2022-09-28T18:33:16.610Z,64.76
2022-09-28T18:36:22.365Z,64.82
2022-09-28T18:39:28.518Z,64.75
2022-09-28T18:42:35.771Z,63.68
2022-09-28T18:45:42.227Z,63.75
2022-09-28T18:48:48.582Z,63.29
2022-09-28T18:51:54.432Z,62.88
2022-09-28T18:55:00.288Z,62.73
2022-09-28T18:58:06.035Z,62.43
2022-09-28T19:01:32.262Z,60.95
2022-09-28T19:04:38.898Z,60.67
2022-09-28T19:07:45.263Z,61.26
2022-09-28T19:10:51.523Z,61.21
2022-09-28T19:13:58.498Z,60.93
2022-09-28T19:17:04.749Z,61.02
2022-09-28T19:20:11.798Z,61.42
2022-09-28T19:23:18.018Z,61.36
2022-09-28T19:26:26.209Z,60.59
2022-09-28T19:29:32.550Z,60.77
2022-09-28T19:32:39.101Z,60.04
2022-09-28T19:35:45.367Z,60.19
2022-09-28T19:38:52.859Z,60.24
2022-09-28T19:41:59.955Z,60.56
2022-09-28T19:45:07.638Z,58.33
2022-09-28T19:48:13.887Z,58.42
2022-09-28T19:51:20.245Z,59.44
2022-09-28T19:54:32.051Z,60.76
2022-09-28T19:57:40.602Z,62.69
2022-09-28T20:00:46.859Z,64.28
2022-09-28T20:03:53.184Z,62.76
2022-09-28T20:06:59.458Z,62.93
2022-09-28T20:10:06.280Z,62.73
2022-09-28T20:13:12.617Z,62.88
2022-09-28T20:16:24.525Z,63.45
2022-09-28T20:19:31.020Z,63.76
2022-09-28T20:22:37.361Z,62.93
2022-09-28T20:25:43.605Z,63.01
2022-09-28T20:28:50.040Z,63.13
2022-09-28T20:31:56.786Z,62.86
2022-09-28T20:35:03.050Z,62.79
2022-09-28T20:38:09.317Z,62.59
2022-09-28T20:41:17.750Z,62.71
2022-09-28T20:44:24.073Z,63.11
2022-09-28T20:47:30.392Z,63.18
2022-09-28T20:50:37.128Z,63.78
2022-09-28T20:53:44.888Z,63.50
2022-09-28T20:56:51.159Z,62.83
2022-09-28T20:59:57.818Z,62.15
2022-09-28T21:03:04.101Z,62.34
2022-09-28T21:06:12.428Z,62.71
2022-09-28T21:09:19.104Z,62.63
2022-09-28T21:12:26.182Z,63.00
2022-09-28T21:15:32.520Z,63.74
2022-09-28T21:18:38.778Z,64.21
2022-09-28T21:21:44.966Z,63.82
2022-09-28T21:24:49.529Z,63.80
2022-09-28T21:27:56.674Z,63.89
2022-09-28T21:31:03.824Z,63.97
2022-09-28T21:34:13.317Z,64.15
2022-09-28T21:37:19.561Z,64.33
2022-09-28T21:40:24.647Z,64.31
2022-09-28T21:43:32.482Z,64.44
2022-09-28T21:46:39.797Z,64.33
2022-09-28T21:49:46.259Z,64.67
2022-09-28T21:52:53.437Z,64.87
2022-09-28T21:56:00.741Z,64.84
2022-09-28T21:59:06.971Z,64.22
2022-09-28T22:02:13.639Z,63.81
2022-09-28T22:05:21.080Z,64.51
2022-09-28T22:08:27.563Z,65.07
2022-09-28T22:11:34.160Z,65.33
2022-09-28T22:14:40.463Z,65.53
2022-09-28T22:17:46.780Z,65.18
2022-09-28T22:21:01.531Z,65.13
2022-09-28T22:24:09.039Z,65.13
2022-09-28T22:27:15.815Z,64.52
2022-09-28T22:30:22.037Z,65.23
2022-09-28T22:33:28.910Z,65.25
2022-09-28T22:36:35.844Z,65.37
2022-09-28T22:39:42.126Z,65.32
2022-09-28T22:42:48.352Z,65.49
2022-09-28T22:46:04.756Z,64.86
2022-09-28T22:49:13.202Z,65.29
2022-09-28T22:52:19.413Z,65.79
2022-09-28T22:55:24.066Z,65.41
2022-09-28T22:58:30.757Z,65.70
2022-09-28T23:01:37.431Z,65.77
2022-09-28T23:04:43.637Z,65.70
2022-09-28T23:07:48.466Z,65.86
2022-09-28T23:10:55.382Z,65.98
2022-09-28T23:14:02.766Z,65.67
2022-09-28T23:17:09.003Z,65.56
2022-09-28T23:20:15.356Z,66.65
2022-09-28T23:23:21.587Z,67.33
2022-09-28T23:26:30.454Z,67.50
2022-09-28T23:29:36.726Z,67.60
2022-09-28T23:32:43.188Z,67.59
2022-09-28T23:35:49.521Z,67.37
2022-09-28T23:38:56.257Z,67.49
2022-09-28T23:42:02.830Z,67.40
2022-09-28T23:45:10.831Z,67.39
2022-09-28T23:48:17.170Z,67.66
2022-09-28T23:51:23.490Z,67.83
2022-09-28T23:54:29.786Z,67.86
2022-09-28T23:57:36.199Z,67.77
